sensor_id;sensor_type;location;lat;lon;timestamp;P1;durP1;ratioP1;P2;durP2;ratioP2
72559;SDS011;62987;52.382;9.752;2023-11-19T08:47:20;12.30;;;2.42;;
72559;SDS011;62987;52.382;9.752;2023-11-19T08:49:50;7.32;;;1.90;;
72559;SDS011;62987;52.382;9.752;2023-11-19T08:52:22;8.27;;;2.78;;
72559;SDS011;62987;52.382;9.752;2023-11-19T08:54:53;11.77;;;2.83;;
72559;SDS011;62987;52.382;9.752;2023-11-19T08:57:22;13.65;;;3.30;;
72559;SDS011;62987;52.382;9.752;2023-11-19T08:59:50;15.30;;;2.95;;
72559;SDS011;62987;52.382;9.752;2023-11-19T09:02:23;17.55;;;3.42;;
72559;SDS011;62987;52.382;9.752;2023-11-19T09:05:01;11.65;;;3.17;;
72559;SDS011;62987;52.382;9.752;2023-11-19T09:07:30;9.40;;;2.85;;
72559;SDS011;62987;52.382;9.752;2023-11-19T09:09:59;15.57;;;2.63;;
72559;SDS011;62987;52.382;9.752;2023-11-19T09:12:27;10.45;;;2.40;;
72559;SDS011;62987;52.382;9.752;2023-11-19T09:14:55;14.18;;;2.67;;
72559;SDS011;62987;52.382;9.752;2023-11-19T09:17:25;15.48;;;2.78;;
72559;SDS011;62987;52.382;9.752;2023-11-19T09:19:55;12.30;;;2.55;;
72559;SDS011;62987;52.382;9.752;2023-11-19T09:22:23;13.60;;;3.75;;
72559;SDS011;62987;52.382;9.752;2023-11-19T09:24:52;8.80;;;1.98;;
72559;SDS011;62987;52.382;9.752;2023-11-19T09:27:20;19.60;;;3.78;;
72559;SDS011;62987;52.382;9.752;2023-11-19T09:29:48;8.50;;;2.25;;
72559;SDS011;62987;52.382;9.752;2023-11-19T09:32:23;11.07;;;2.78;;
72559;SDS011;62987;52.382;9.752;2023-11-19T09:34:54;15.90;;;4.13;;
72559;SDS011;62987;52.382;9.752;2023-11-19T09:37:22;9.93;;;2.45;;
72559;SDS011;62987;52.382;9.752;2023-11-19T09:39:50;11.85;;;3.65;;
72559;SDS011;62987;52.382;9.752;2023-11-19T09:42:20;13.48;;;4.03;;
72559;SDS011;62987;52.382;9.752;2023-11-19T09:44:48;13.68;;;2.50;;
72559;SDS011;62987;52.382;9.752;2023-11-19T09:47:17;10.95;;;2.50;;
72559;SDS011;62987;52.382;9.752;2023-11-19T09:49:50;11.73;;;2.60;;
72559;SDS011;62987;52.382;9.752;2023-11-19T09:52:23;12.00;;;3.00;;
72559;SDS011;62987;52.382;9.752;2023-11-19T09:54:53;14.27;;;2.40;;
72559;SDS011;62987;52.382;9.752;2023-11-19T09:57:21;15.75;;;3.33;;
72559;SDS011;62987;52.382;9.752;2023-11-19T09:59:50;12.48;;;2.70;;
72559;SDS011;62987;52.382;9.752;2023-11-19T10:02:19;9.52;;;2.80;;
72559;SDS011;62987;52.382;9.752;2023-11-19T10:04:48;10.50;;;2.00;;
72559;SDS011;62987;52.382;9.752;2023-11-19T10:07:20;14.73;;;2.28;;
72559;SDS011;62987;52.382;9.752;2023-11-19T10:09:52;13.02;;;3.05;;
72559;SDS011;62987;52.382;9.752;2023-11-19T10:12:20;14.65;;;2.92;;
72559;SDS011;62987;52.382;9.752;2023-11-19T10:14:48;16.20;;;3.45;;
72559;SDS011;62987;52.382;9.752;2023-11-19T10:17:18;18.35;;;2.67;;
72559;SDS011;62987;52.382;9.752;2023-11-19T10:19:47;14.43;;;2.33;;
72559;SDS011;62987;52.382;9.752;2023-11-19T10:22:17;15.05;;;2.90;;
72559;SDS011;62987;52.382;9.752;2023-11-19T10:24:45;12.93;;;2.42;;
72559;SDS011;62987;52.382;9.752;2023-11-19T10:27:20;11.57;;;2.58;;
72559;SDS011;62987;52.382;9.752;2023-11-19T10:29:51;10.93;;;2.72;;
72559;SDS011;62987;52.382;9.752;2023-11-19T10:32:19;7.35;;;2.35;;
72559;SDS011;62987;52.382;9.752;2023-11-19T10:35:01;11.27;;;2.63;;
72559;SDS011;62987;52.382;9.752;2023-11-19T10:37:34;9.10;;;2.97;;
72559;SDS011;62987;52.382;9.752;2023-11-19T10:40:05;7.93;;;1.73;;
72559;SDS011;62987;52.382;9.752;2023-11-19T10:42:37;13.45;;;2.67;;
72559;SDS011;62987;52.382;9.752;2023-11-19T10:45:06;8.23;;;2.33;;
72559;SDS011;62987;52.382;9.752;2023-11-19T10:47:51;12.57;;;2.70;;
72559;SDS011;62987;52.382;9.752;2023-11-19T10:50:20;6.68;;;2.20;;
72559;SDS011;62987;52.382;9.752;2023-11-19T10:55:14;12.63;;;2.67;;
72559;SDS011;62987;52.382;9.752;2023-11-19T10:57:45;16.08;;;2.65;;
72559;SDS011;62987;52.382;9.752;2023-11-19T11:00:16;8.82;;;2.22;;
72559;SDS011;62987;52.382;9.752;2023-11-19T11:02:48;11.75;;;2.88;;
72559;SDS011;62987;52.382;9.752;2023-11-19T11:05:22;9.18;;;2.20;;
72559;SDS011;62987;52.382;9.752;2023-11-19T11:07:55;13.68;;;2.85;;
72559;SDS011;62987;52.382;9.752;2023-11-19T11:10:25;26.95;;;4.25;;
72559;SDS011;62987;52.382;9.752;2023-11-19T11:12:54;13.70;;;3.42;;
72559;SDS011;62987;52.382;9.752;2023-11-19T11:15:27;10.77;;;2.42;;
72559;SDS011;62987;52.382;9.752;2023-11-19T11:17:57;15.38;;;2.95;;
72559;SDS011;62987;52.382;9.752;2023-11-19T11:20:28;12.00;;;2.95;;
72559;SDS011;62987;52.382;9.752;2023-11-19T11:23:05;11.73;;;2.55;;
72559;SDS011;62987;52.382;9.752;2023-11-19T11:25:51;13.98;;;3.92;;
72559;SDS011;62987;52.382;9.752;2023-11-19T11:28:29;9.70;;;4.00;;
72559;SDS011;62987;52.382;9.752;2023-11-19T11:31:08;9.50;;;2.40;;
72559;SDS011;62987;52.382;9.752;2023-11-19T11:33:52;10.75;;;2.40;;
72559;SDS011;62987;52.382;9.752;2023-11-19T11:36:34;11.48;;;2.83;;
72559;SDS011;62987;52.382;9.752;2023-11-19T11:39:12;12.93;;;3.17;;
72559;SDS011;62987;52.382;9.752;2023-11-19T11:41:43;11.43;;;2.38;;
72559;SDS011;62987;52.382;9.752;2023-11-19T11:44:11;9.75;;;3.03;;
72559;SDS011;62987;52.382;9.752;2023-11-19T11:46:53;9.15;;;2.88;;
72559;SDS011;62987;52.382;9.752;2023-11-19T11:49:24;15.02;;;2.53;;
72559;SDS011;62987;52.382;9.752;2023-11-19T11:51:57;12.02;;;2.63;;
72559;SDS011;62987;52.382;9.752;2023-11-19T11:54:31;17.23;;;3.10;;
72559;SDS011;62987;52.382;9.752;2023-11-19T11:57:10;17.50;;;3.50;;
72559;SDS011;62987;52.382;9.752;2023-11-19T11:59:48;11.10;;;2.42;;
72559;SDS011;62987;52.382;9.752;2023-11-19T12:02:17;12.48;;;3.00;;
72559;SDS011;62987;52.382;9.752;2023-11-19T12:04:48;13.52;;;2.58;;
72559;SDS011;62987;52.382;9.752;2023-11-19T12:07:19;10.98;;;3.20;;
72559;SDS011;62987;52.382;9.752;2023-11-19T12:09:51;10.25;;;2.55;;
72559;SDS011;62987;52.382;9.752;2023-11-19T12:12:27;10.27;;;3.28;;
72559;SDS011;62987;52.382;9.752;2023-11-19T12:15:00;13.90;;;3.58;;
72559;SDS011;62987;52.382;9.752;2023-11-19T12:17:42;13.65;;;2.53;;
72559;SDS011;62987;52.382;9.752;2023-11-19T12:20:17;11.02;;;2.83;;
72559;SDS011;62987;52.382;9.752;2023-11-19T12:22:50;14.55;;;3.53;;
72559;SDS011;62987;52.382;9.752;2023-11-19T12:25:19;15.65;;;2.88;;
72559;SDS011;62987;52.382;9.752;2023-11-19T12:27:51;12.73;;;2.55;;
72559;SDS011;62987;52.382;9.752;2023-11-19T12:30:21;12.07;;;3.67;;
72559;SDS011;62987;52.382;9.752;2023-11-19T12:32:52;8.35;;;2.05;;
72559;SDS011;62987;52.382;9.752;2023-11-19T12:35:22;17.05;;;3.25;;
72559;SDS011;62987;52.382;9.752;2023-11-19T12:37:52;13.27;;;2.88;;
72559;SDS011;62987;52.382;9.752;2023-11-19T12:40:21;8.18;;;2.00;;
72559;SDS011;62987;52.382;9.752;2023-11-19T12:42:52;15.65;;;2.90;;
72559;SDS011;62987;52.382;9.752;2023-11-19T12:45:22;11.50;;;2.58;;
72559;SDS011;62987;52.382;9.752;2023-11-19T12:48:04;10.48;;;2.92;;
72559;SDS011;62987;52.382;9.752;2023-11-19T12:53:18;12.25;;;2.85;;
72559;SDS011;62987;52.382;9.752;2023-11-19T12:55:47;8.70;;;2.40;;
72559;SDS011;62987;52.382;9.752;2023-11-19T12:58:29;13.77;;;2.45;;
72559;SDS011;62987;52.382;9.752;2023-11-19T13:01:01;12.43;;;3.05;;
72559;SDS011;62987;52.382;9.752;2023-11-19T13:03:31;15.35;;;2.50;;
72559;SDS011;62987;52.382;9.752;2023-11-19T13:06:01;5.75;;;2.03;;
72559;SDS011;62987;52.382;9.752;2023-11-19T13:08:36;10.38;;;2.20;;
72559;SDS011;62987;52.382;9.752;2023-11-19T13:11:06;9.38;;;2.22;;
72559;SDS011;62987;52.382;9.752;2023-11-19T13:13:56;6.45;;;2.15;;
72559;SDS011;62987;52.382;9.752;2023-11-19T13:16:26;14.50;;;3.25;;
72559;SDS011;62987;52.382;9.752;2023-11-19T13:18:56;13.55;;;2.75;;
72559;SDS011;62987;52.382;9.752;2023-11-19T13:21:27;10.68;;;2.35;;
72559;SDS011;62987;52.382;9.752;2023-11-19T13:23:56;10.20;;;2.00;;
72559;SDS011;62987;52.382;9.752;2023-11-19T13:26:24;7.60;;;2.10;;
72559;SDS011;62987;52.382;9.752;2023-11-19T13:28:53;12.98;;;2.63;;
72559;SDS011;62987;52.382;9.752;2023-11-19T13:31:23;22.30;;;3.92;;
72559;SDS011;62987;52.382;9.752;2023-11-19T13:33:51;12.30;;;3.97;;
72559;SDS011;62987;52.382;9.752;2023-11-19T13:36:20;12.30;;;2.22;;
72559;SDS011;62987;52.382;9.752;2023-11-19T13:38:48;12.10;;;2.97;;
72559;SDS011;62987;52.382;9.752;2023-11-19T13:41:20;25.55;;;3.92;;
72559;SDS011;62987;52.382;9.752;2023-11-19T13:43:48;10.60;;;2.92;;
72559;SDS011;62987;52.382;9.752;2023-11-19T13:46:17;15.00;;;2.53;;
72559;SDS011;62987;52.382;9.752;2023-11-19T13:48:47;13.00;;;2.88;;
72559;SDS011;62987;52.382;9.752;2023-11-19T13:51:16;14.15;;;3.47;;
72559;SDS011;62987;52.382;9.752;2023-11-19T13:53:44;12.15;;;3.00;;
72559;SDS011;62987;52.382;9.752;2023-11-19T13:56:16;13.77;;;4.50;;
72559;SDS011;62987;52.382;9.752;2023-11-19T13:58:45;10.65;;;2.67;;
72559;SDS011;62987;52.382;9.752;2023-11-19T14:01:14;15.57;;;4.13;;
72559;SDS011;62987;52.382;9.752;2023-11-19T14:03:42;6.93;;;2.45;;
72559;SDS011;62987;52.382;9.752;2023-11-19T14:06:12;12.57;;;3.33;;
72559;SDS011;62987;52.382;9.752;2023-11-19T14:08:41;19.38;;;3.95;;
72559;SDS011;62987;52.382;9.752;2023-11-19T14:11:09;13.65;;;2.67;;
72559;SDS011;62987;52.382;9.752;2023-11-19T14:13:38;13.77;;;3.30;;
72559;SDS011;62987;52.382;9.752;2023-11-19T14:16:06;11.02;;;3.50;;
72559;SDS011;62987;52.382;9.752;2023-11-19T14:18:36;14.23;;;3.45;;
72559;SDS011;62987;52.382;9.752;2023-11-19T14:21:05;9.52;;;3.15;;
72559;SDS011;62987;52.382;9.752;2023-11-19T14:23:35;14.05;;;3.28;;
72559;SDS011;62987;52.382;9.752;2023-11-19T14:26:04;13.57;;;3.05;;
72559;SDS011;62987;52.382;9.752;2023-11-19T14:28:32;7.75;;;2.03;;
72559;SDS011;62987;52.382;9.752;2023-11-19T14:31:13;12.70;;;3.60;;
72559;SDS011;62987;52.382;9.752;2023-11-19T14:33:41;14.32;;;3.80;;
72559;SDS011;62987;52.382;9.752;2023-11-19T14:36:10;9.57;;;2.42;;
72559;SDS011;62987;52.382;9.752;2023-11-19T14:38:38;13.90;;;3.05;;
72559;SDS011;62987;52.382;9.752;2023-11-19T14:41:41;11.80;;;3.33;;
72559;SDS011;62987;52.382;9.752;2023-11-19T14:44:10;9.52;;;2.60;;
72559;SDS011;62987;52.382;9.752;2023-11-19T14:46:39;12.30;;;2.97;;
72559;SDS011;62987;52.382;9.752;2023-11-19T14:49:07;13.55;;;3.38;;
72559;SDS011;62987;52.382;9.752;2023-11-19T14:51:36;17.67;;;3.22;;
72559;SDS011;62987;52.382;9.752;2023-11-19T14:54:05;9.43;;;2.22;;
72559;SDS011;62987;52.382;9.752;2023-11-19T14:56:33;15.23;;;4.15;;
72559;SDS011;62987;52.382;9.752;2023-11-19T14:59:03;9.82;;;2.65;;
72559;SDS011;62987;52.382;9.752;2023-11-19T15:01:32;9.73;;;1.83;;
72559;SDS011;62987;52.382;9.752;2023-11-19T15:04:00;14.15;;;2.22;;
72559;SDS011;62987;52.382;9.752;2023-11-19T15:06:32;9.73;;;2.50;;
72559;SDS011;62987;52.382;9.752;2023-11-19T15:09:01;9.73;;;2.20;;
72559;SDS011;62987;52.382;9.752;2023-11-19T15:11:29;10.23;;;2.28;;
72559;SDS011;62987;52.382;9.752;2023-11-19T15:13:58;6.93;;;2.08;;
72559;SDS011;62987;52.382;9.752;2023-11-19T15:16:29;9.45;;;2.47;;
72559;SDS011;62987;52.382;9.752;2023-11-19T15:19:01;8.55;;;2.90;;
72559;SDS011;62987;52.382;9.752;2023-11-19T15:21:30;15.85;;;2.95;;
72559;SDS011;62987;52.382;9.752;2023-11-19T15:23:59;14.68;;;3.97;;
72559;SDS011;62987;52.382;9.752;2023-11-19T15:26:27;18.83;;;4.60;;
72559;SDS011;62987;52.382;9.752;2023-11-19T15:28:56;20.15;;;4.28;;
72559;SDS011;62987;52.382;9.752;2023-11-19T15:31:25;13.43;;;3.83;;
72559;SDS011;62987;52.382;9.752;2023-11-19T15:33:55;13.00;;;3.38;;
72559;SDS011;62987;52.382;9.752;2023-11-19T15:36:23;17.90;;;4.00;;
72559;SDS011;62987;52.382;9.752;2023-11-19T15:38:52;20.58;;;4.30;;
72559;SDS011;62987;52.382;9.752;2023-11-19T15:41:21;12.10;;;3.17;;
72559;SDS011;62987;52.382;9.752;2023-11-19T15:43:49;12.48;;;3.38;;
72559;SDS011;62987;52.382;9.752;2023-11-19T15:46:18;20.10;;;3.92;;
72559;SDS011;62987;52.382;9.752;2023-11-19T15:48:47;17.02;;;4.82;;
72559;SDS011;62987;52.382;9.752;2023-11-19T15:51:16;11.55;;;3.50;;
72559;SDS011;62987;52.382;9.752;2023-11-19T15:53:45;11.48;;;2.97;;
72559;SDS011;62987;52.382;9.752;2023-11-19T15:56:14;26.10;;;4.90;;
72559;SDS011;62987;52.382;9.752;2023-11-19T15:58:42;17.05;;;3.90;;
72559;SDS011;62987;52.382;9.752;2023-11-19T16:01:11;15.65;;;3.97;;
72559;SDS011;62987;52.382;9.752;2023-11-19T16:03:39;17.13;;;3.95;;
72559;SDS011;62987;52.382;9.752;2023-11-19T16:06:12;15.75;;;3.38;;
72559;SDS011;62987;52.382;9.752;2023-11-19T16:08:43;17.52;;;4.30;;
72559;SDS011;62987;52.382;9.752;2023-11-19T16:11:12;20.30;;;3.63;;
72559;SDS011;62987;52.382;9.752;2023-11-19T16:13:41;13.10;;;3.53;;
72559;SDS011;62987;52.382;9.752;2023-11-19T16:16:09;10.52;;;3.58;;
72559;SDS011;62987;52.382;9.752;2023-11-19T16:18:38;16.15;;;3.03;;
72559;SDS011;62987;52.382;9.752;2023-11-19T16:21:07;14.57;;;3.78;;
72559;SDS011;62987;52.382;9.752;2023-11-19T16:23:35;13.18;;;3.83;;
72559;SDS011;62987;52.382;9.752;2023-11-19T16:26:05;11.40;;;3.65;;
72559;SDS011;62987;52.382;9.752;2023-11-19T16:28:34;15.25;;;4.40;;
72559;SDS011;62987;52.382;9.752;2023-11-19T16:31:02;15.30;;;4.35;;
72559;SDS011;62987;52.382;9.752;2023-11-19T16:33:31;11.02;;;3.25;;
72559;SDS011;62987;52.382;9.752;2023-11-19T16:36:01;14.18;;;4.68;;
72559;SDS011;62987;52.382;9.752;2023-11-19T16:38:30;13.98;;;3.65;;
72559;SDS011;62987;52.382;9.752;2023-11-19T16:41:00;15.05;;;4.07;;
72559;SDS011;62987;52.382;9.752;2023-11-19T16:43:29;13.20;;;3.47;;
72559;SDS011;62987;52.382;9.752;2023-11-19T16:45:58;10.07;;;3.58;;
72559;SDS011;62987;52.382;9.752;2023-11-19T16:48:26;8.63;;;3.03;;
72559;SDS011;62987;52.382;9.752;2023-11-19T16:50:55;15.93;;;3.28;;
72559;SDS011;62987;52.382;9.752;2023-11-19T16:53:26;19.02;;;3.88;;
72559;SDS011;62987;52.382;9.752;2023-11-19T16:55:55;15.95;;;3.85;;
72559;SDS011;62987;52.382;9.752;2023-11-19T16:58:23;13.40;;;3.53;;
72559;SDS011;62987;52.382;9.752;2023-11-19T17:00:53;13.20;;;5.03;;
72559;SDS011;62987;52.382;9.752;2023-11-19T17:03:24;16.77;;;3.55;;
72559;SDS011;62987;52.382;9.752;2023-11-19T17:05:53;19.55;;;5.22;;
72559;SDS011;62987;52.382;9.752;2023-11-19T17:08:21;14.00;;;3.20;;
72559;SDS011;62987;52.382;9.752;2023-11-19T17:10:50;12.55;;;3.40;;
72559;SDS011;62987;52.382;9.752;2023-11-19T17:13:20;17.30;;;4.05;;
72559;SDS011;62987;52.382;9.752;2023-11-19T17:15:49;15.95;;;3.97;;
72559;SDS011;62987;52.382;9.752;2023-11-19T17:18:19;10.10;;;3.53;;
72559;SDS011;62987;52.382;9.752;2023-11-19T17:20:48;16.40;;;4.35;;
72559;SDS011;62987;52.382;9.752;2023-11-19T17:23:16;15.15;;;3.65;;
72559;SDS011;62987;52.382;9.752;2023-11-19T17:25:45;15.68;;;4.20;;
72559;SDS011;62987;52.382;9.752;2023-11-19T17:28:14;14.52;;;4.25;;
72559;SDS011;62987;52.382;9.752;2023-11-19T17:30:43;12.35;;;4.05;;
72559;SDS011;62987;52.382;9.752;2023-11-19T17:33:11;12.70;;;4.93;;
72559;SDS011;62987;52.382;9.752;2023-11-19T17:35:41;12.75;;;3.53;;
72559;SDS011;62987;52.382;9.752;2023-11-19T17:38:09;15.60;;;3.90;;
72559;SDS011;62987;52.382;9.752;2023-11-19T17:40:40;13.73;;;3.55;;
72559;SDS011;62987;52.382;9.752;2023-11-19T17:43:09;14.85;;;4.18;;
72559;SDS011;62987;52.382;9.752;2023-11-19T17:45:38;12.65;;;5.05;;
72559;SDS011;62987;52.382;9.752;2023-11-19T17:48:06;14.98;;;3.63;;
72559;SDS011;62987;52.382;9.752;2023-11-19T17:50:35;16.83;;;3.55;;
72559;SDS011;62987;52.382;9.752;2023-11-19T17:53:05;10.57;;;3.22;;
72559;SDS011;62987;52.382;9.752;2023-11-19T17:55:33;14.10;;;3.40;;
72559;SDS011;62987;52.382;9.752;2023-11-19T17:58:02;7.47;;;3.55;;
72559;SDS011;62987;52.382;9.752;2023-11-19T18:00:30;10.50;;;3.03;;
72559;SDS011;62987;52.382;9.752;2023-11-19T18:02:59;10.18;;;3.30;;
72559;SDS011;62987;52.382;9.752;2023-11-19T18:05:28;8.77;;;3.38;;
72559;SDS011;62987;52.382;9.752;2023-11-19T18:07:57;10.65;;;3.40;;
72559;SDS011;62987;52.382;9.752;2023-11-19T18:10:26;9.23;;;4.50;;
72559;SDS011;62987;52.382;9.752;2023-11-19T18:12:55;18.95;;;4.10;;
72559;SDS011;62987;52.382;9.752;2023-11-19T18:15:23;8.75;;;3.67;;
72559;SDS011;62987;52.382;9.752;2023-11-19T18:17:52;6.78;;;2.78;;
72559;SDS011;62987;52.382;9.752;2023-11-19T18:20:21;11.75;;;3.10;;
72559;SDS011;62987;52.382;9.752;2023-11-19T18:22:50;10.45;;;3.20;;
72559;SDS011;62987;52.382;9.752;2023-11-19T18:25:21;11.65;;;3.78;;
72559;SDS011;62987;52.382;9.752;2023-11-19T18:27:51;16.05;;;2.45;;
72559;SDS011;62987;52.382;9.752;2023-11-19T18:30:19;9.18;;;3.38;;
72559;SDS011;62987;52.382;9.752;2023-11-19T18:32:48;15.57;;;3.35;;
72559;SDS011;62987;52.382;9.752;2023-11-19T18:35:17;19.25;;;4.53;;
72559;SDS011;62987;52.382;9.752;2023-11-19T18:37:51;12.15;;;3.30;;
72559;SDS011;62987;52.382;9.752;2023-11-19T18:40:20;9.82;;;3.97;;
72559;SDS011;62987;52.382;9.752;2023-11-19T18:42:50;8.95;;;3.10;;
72559;SDS011;62987;52.382;9.752;2023-11-19T18:45:21;15.80;;;4.13;;
72559;SDS011;62987;52.382;9.752;2023-11-19T18:47:50;10.95;;;3.42;;
72559;SDS011;62987;52.382;9.752;2023-11-19T18:50:18;12.48;;;4.35;;
72559;SDS011;62987;52.382;9.752;2023-11-19T18:52:48;9.93;;;3.88;;
72559;SDS011;62987;52.382;9.752;2023-11-19T18:55:16;12.32;;;4.18;;
72559;SDS011;62987;52.382;9.752;2023-11-19T18:57:45;10.20;;;4.05;;
72559;SDS011;62987;52.382;9.752;2023-11-19T19:00:15;12.40;;;4.47;;
72559;SDS011;62987;52.382;9.752;2023-11-19T19:02:44;11.75;;;4.25;;
72559;SDS011;62987;52.382;9.752;2023-11-19T19:05:19;12.65;;;3.97;;
72559;SDS011;62987;52.382;9.752;2023-11-19T19:07:47;14.10;;;3.95;;
72559;SDS011;62987;52.382;9.752;2023-11-19T19:10:16;17.83;;;4.53;;
72559;SDS011;62987;52.382;9.752;2023-11-19T19:12:45;13.23;;;4.70;;
72559;SDS011;62987;52.382;9.752;2023-11-19T19:15:14;16.70;;;4.68;;
72559;SDS011;62987;52.382;9.752;2023-11-19T19:17:43;11.50;;;4.20;;
72559;SDS011;62987;52.382;9.752;2023-11-19T19:20:12;11.57;;;4.15;;
72559;SDS011;62987;52.382;9.752;2023-11-19T19:22:41;13.63;;;3.83;;
72559;SDS011;62987;52.382;9.752;2023-11-19T19:25:09;12.05;;;4.55;;
72559;SDS011;62987;52.382;9.752;2023-11-19T19:27:38;14.77;;;3.92;;
72559;SDS011;62987;52.382;9.752;2023-11-19T19:30:07;14.63;;;4.30;;
72559;SDS011;62987;52.382;9.752;2023-11-19T19:32:38;13.35;;;4.28;;
72559;SDS011;62987;52.382;9.752;2023-11-19T19:35:11;16.73;;;4.55;;
72559;SDS011;62987;52.382;9.752;2023-11-19T19:37:40;18.23;;;4.97;;
72559;SDS011;62987;52.382;9.752;2023-11-19T19:40:09;14.90;;;4.43;;
72559;SDS011;62987;52.382;9.752;2023-11-19T19:42:41;13.20;;;4.38;;
72559;SDS011;62987;52.382;9.752;2023-11-19T19:45:10;9.50;;;3.53;;
72559;SDS011;62987;52.382;9.752;2023-11-19T19:47:41;20.00;;;4.63;;
72559;SDS011;62987;52.382;9.752;2023-11-19T19:50:10;18.30;;;4.50;;
72559;SDS011;62987;52.382;9.752;2023-11-19T19:52:39;15.43;;;4.00;;
72559;SDS011;62987;52.382;9.752;2023-11-19T19:55:08;13.35;;;4.28;;
72559;SDS011;62987;52.382;9.752;2023-11-19T19:57:39;20.10;;;3.97;;
72559;SDS011;62987;52.382;9.752;2023-11-19T20:00:07;8.98;;;3.58;;
72559;SDS011;62987;52.382;9.752;2023-11-19T20:02:43;16.55;;;4.32;;
72559;SDS011;62987;52.382;9.752;2023-11-19T20:05:12;12.68;;;3.83;;
72559;SDS011;62987;52.382;9.752;2023-11-19T20:07:42;14.18;;;3.63;;
72559;SDS011;62987;52.382;9.752;2023-11-19T20:10:11;14.40;;;3.88;;
72559;SDS011;62987;52.382;9.752;2023-11-19T20:12:41;11.45;;;3.75;;
72559;SDS011;62987;52.382;9.752;2023-11-19T20:15:10;14.32;;;4.50;;
72559;SDS011;62987;52.382;9.752;2023-11-19T20:17:40;8.73;;;3.75;;
72559;SDS011;62987;52.382;9.752;2023-11-19T20:20:11;17.77;;;4.93;;
72559;SDS011;62987;52.382;9.752;2023-11-19T20:22:40;15.15;;;4.38;;
72559;SDS011;62987;52.382;9.752;2023-11-19T20:25:09;14.48;;;5.07;;
72559;SDS011;62987;52.382;9.752;2023-11-19T20:27:38;13.77;;;5.43;;
72559;SDS011;62987;52.382;9.752;2023-11-19T20:30:07;9.18;;;3.45;;
72559;SDS011;62987;52.382;9.752;2023-11-19T20:32:37;19.38;;;4.13;;
72559;SDS011;62987;52.382;9.752;2023-11-19T20:35:07;15.38;;;4.15;;
72559;SDS011;62987;52.382;9.752;2023-11-19T20:37:38;11.73;;;4.40;;
72559;SDS011;62987;52.382;9.752;2023-11-19T20:40:07;9.77;;;4.13;;
72559;SDS011;62987;52.382;9.752;2023-11-19T20:42:38;13.80;;;4.07;;
72559;SDS011;62987;52.382;9.752;2023-11-19T20:45:07;12.05;;;4.18;;
72559;SDS011;62987;52.382;9.752;2023-11-19T20:47:37;11.65;;;4.20;;
72559;SDS011;62987;52.382;9.752;2023-11-19T20:50:06;11.63;;;4.28;;
72559;SDS011;62987;52.382;9.752;2023-11-19T20:52:36;9.57;;;3.70;;
72559;SDS011;62987;52.382;9.752;2023-11-19T20:55:07;10.88;;;3.85;;
72559;SDS011;62987;52.382;9.752;2023-11-19T20:57:38;11.80;;;4.82;;
72559;SDS011;62987;52.382;9.752;2023-11-19T21:00:07;9.93;;;3.78;;
72559;SDS011;62987;52.382;9.752;2023-11-19T21:02:39;8.38;;;3.67;;
72559;SDS011;62987;52.382;9.752;2023-11-19T21:05:09;10.32;;;3.35;;
72559;SDS011;62987;52.382;9.752;2023-11-19T21:07:37;8.77;;;3.08;;
72559;SDS011;62987;52.382;9.752;2023-11-19T21:10:08;11.63;;;4.30;;
72559;SDS011;62987;52.382;9.752;2023-11-19T21:12:39;12.05;;;4.65;;
72559;SDS011;62987;52.382;9.752;2023-11-19T21:15:08;10.95;;;3.92;;
72559;SDS011;62987;52.382;9.752;2023-11-19T21:17:37;7.38;;;3.55;;
72559;SDS011;62987;52.382;9.752;2023-11-19T21:20:30;8.30;;;3.40;;
72559;SDS011;62987;52.382;9.752;2023-11-19T21:23:07;14.52;;;4.25;;
72559;SDS011;62987;52.382;9.752;2023-11-19T21:25:36;10.52;;;3.35;;
72559;SDS011;62987;52.382;9.752;2023-11-19T21:28:09;7.68;;;3.70;;
72559;SDS011;62987;52.382;9.752;2023-11-19T21:30:40;8.52;;;3.00;;
72559;SDS011;62987;52.382;9.752;2023-11-19T21:33:08;13.02;;;3.80;;
72559;SDS011;62987;52.382;9.752;2023-11-19T21:35:40;9.93;;;3.63;;
72559;SDS011;62987;52.382;9.752;2023-11-19T21:39:05;9.43;;;3.80;;
72559;SDS011;62987;52.382;9.752;2023-11-19T21:41:35;7.97;;;4.03;;
72559;SDS011;62987;52.382;9.752;2023-11-19T21:44:04;8.38;;;2.65;;
72559;SDS011;62987;52.382;9.752;2023-11-19T21:46:33;11.80;;;3.75;;
72559;SDS011;62987;52.382;9.752;2023-11-19T21:49:01;10.93;;;3.65;;
72559;SDS011;62987;52.382;9.752;2023-11-19T21:51:30;9.40;;;3.22;;
72559;SDS011;62987;52.382;9.752;2023-11-19T21:53:59;11.40;;;3.03;;
72559;SDS011;62987;52.382;9.752;2023-11-19T21:56:29;7.13;;;3.13;;
72559;SDS011;62987;52.382;9.752;2023-11-19T21:58:58;11.15;;;3.70;;
72559;SDS011;62987;52.382;9.752;2023-11-19T22:01:26;7.68;;;3.33;;
72559;SDS011;62987;52.382;9.752;2023-11-19T22:03:55;8.65;;;4.25;;
72559;SDS011;62987;52.382;9.752;2023-11-19T22:06:24;12.02;;;3.78;;
72559;SDS011;62987;52.382;9.752;2023-11-19T22:08:52;6.55;;;2.83;;
72559;SDS011;62987;52.382;9.752;2023-11-19T22:11:21;14.43;;;3.20;;
72559;SDS011;62987;52.382;9.752;2023-11-19T22:13:52;5.22;;;2.53;;
72559;SDS011;62987;52.382;9.752;2023-11-19T22:16:21;6.72;;;2.92;;
72559;SDS011;62987;52.382;9.752;2023-11-19T22:18:49;10.07;;;3.20;;
72559;SDS011;62987;52.382;9.752;2023-11-19T22:21:19;8.18;;;2.95;;
72559;SDS011;62987;52.382;9.752;2023-11-19T22:23:47;6.47;;;2.70;;
72559;SDS011;62987;52.382;9.752;2023-11-19T22:26:16;6.40;;;2.00;;
72559;SDS011;62987;52.382;9.752;2023-11-19T22:28:44;4.93;;;2.00;;
72559;SDS011;62987;52.382;9.752;2023-11-19T22:31:14;6.22;;;2.20;;
72559;SDS011;62987;52.382;9.752;2023-11-19T22:33:43;5.25;;;2.25;;
72559;SDS011;62987;52.382;9.752;2023-11-19T22:36:11;4.85;;;1.60;;
72559;SDS011;62987;52.382;9.752;2023-11-19T22:38:39;6.85;;;2.10;;
72559;SDS011;62987;52.382;9.752;2023-11-19T22:41:08;3.28;;;1.30;;
72559;SDS011;62987;52.382;9.752;2023-11-19T22:43:38;4.07;;;1.65;;
72559;SDS011;62987;52.382;9.752;2023-11-19T22:46:07;3.55;;;1.27;;
72559;SDS011;62987;52.382;9.752;2023-11-19T22:48:36;4.32;;;1.60;;
72559;SDS011;62987;52.382;9.752;2023-11-19T22:51:05;3.65;;;1.70;;
72559;SDS011;62987;52.382;9.752;2023-11-19T22:53:35;3.80;;;1.45;;
72559;SDS011;62987;52.382;9.752;2023-11-19T22:56:04;3.13;;;1.38;;
72559;SDS011;62987;52.382;9.752;2023-11-19T22:58:33;4.38;;;1.38;;
72559;SDS011;62987;52.382;9.752;2023-11-19T23:01:02;2.90;;;1.23;;
72559;SDS011;62987;52.382;9.752;2023-11-19T23:03:33;2.88;;;1.13;;
72559;SDS011;62987;52.382;9.752;2023-11-19T23:06:03;3.40;;;1.05;;
72559;SDS011;62987;52.382;9.752;2023-11-19T23:08:32;2.42;;;0.90;;
72559;SDS011;62987;52.382;9.752;2023-11-19T23:11:00;3.72;;;0.98;;
72559;SDS011;62987;52.382;9.752;2023-11-19T23:13:28;2.83;;;0.90;;
72559;SDS011;62987;52.382;9.752;2023-11-19T23:15:57;4.47;;;0.80;;
72559;SDS011;62987;52.382;9.752;2023-11-19T23:18:27;1.58;;;0.77;;
72559;SDS011;62987;52.382;9.752;2023-11-19T23:20:56;3.70;;;0.82;;
72559;SDS011;62987;52.382;9.752;2023-11-19T23:23:27;1.77;;;0.82;;
72559;SDS011;62987;52.382;9.752;2023-11-19T23:25:56;1.15;;;0.60;;
72559;SDS011;62987;52.382;9.752;2023-11-19T23:28:24;1.63;;;0.65;;
72559;SDS011;62987;52.382;9.752;2023-11-19T23:30:53;1.38;;;0.52;;
72559;SDS011;62987;52.382;9.752;2023-11-19T23:33:22;1.48;;;0.60;;
72559;SDS011;62987;52.382;9.752;2023-11-19T23:35:50;2.03;;;0.70;;
72559;SDS011;62987;52.382;9.752;2023-11-19T23:38:20;3.60;;;0.88;;
72559;SDS011;62987;52.382;9.752;2023-11-19T23:40:50;1.83;;;0.65;;
72559;SDS011;62987;52.382;9.752;2023-11-19T23:43:20;1.25;;;0.60;;
72559;SDS011;62987;52.382;9.752;2023-11-19T23:45:49;1.83;;;0.68;;
72559;SDS011;62987;52.382;9.752;2023-11-19T23:48:18;2.17;;;0.85;;